sensor_id;sensor_type;location;lat;lon;timestamp;P1;durP1;ratioP1;P2;durP2;ratioP2
61739;SDS011;47645;45.288;12.038;2022-10-16T00:00:19;47.9;;;31.4;;
61739;SDS011;47645;45.288;12.038;2022-10-16T00:10:20;49.9;;;30.9;;
61739;SDS011;47645;45.288;12.038;2022-10-16T00:20:21;38.1;;;24.5;;
61739;SDS011;47645;45.288;12.038;2022-10-16T00:30:23;37.6;;;25.1;;
61739;SDS011;47645;45.288;12.038;2022-10-16T00:40:23;47.2;;;29.2;;
61739;SDS011;47645;45.288;12.038;2022-10-16T00:50:26;46.5;;;29.5;;
61739;SDS011;47645;45.288;12.038;2022-10-16T01:00:26;36.9;;;23.3;;
61739;SDS011;47645;45.288;12.038;2022-10-16T01:10:27;42.1;;;27.5;;
61739;SDS011;47645;45.288;12.038;2022-10-16T01:20:28;33.9;;;22.5;;
61739;SDS011;47645;45.288;12.038;2022-10-16T01:30:29;32.6;;;21.8;;
61739;SDS011;47645;45.288;12.038;2022-10-16T01:40:28;34.3;;;22.5;;
61739;SDS011;47645;45.288;12.038;2022-10-16T01:50:29;34.1;;;22.9;;
61739;SDS011;47645;45.288;12.038;2022-10-16T02:00:30;42.1;;;27.8;;
61739;SDS011;47645;45.288;12.038;2022-10-16T02:10:31;41.7;;;26.0;;
61739;SDS011;47645;45.288;12.038;2022-10-16T02:20:33;37.8;;;25.0;;
61739;SDS011;47645;45.288;12.038;2022-10-16T02:30:35;40.8;;;25.8;;
61739;SDS011;47645;45.288;12.038;2022-10-16T02:40:34;36.9;;;23.2;;
61739;SDS011;47645;45.288;12.038;2022-10-16T02:50:35;38.0;;;24.9;;
61739;SDS011;47645;45.288;12.038;2022-10-16T03:00:36;37.0;;;23.6;;
61739;SDS011;47645;45.288;12.038;2022-10-16T03:10:37;45.9;;;28.8;;
61739;SDS011;47645;45.288;12.038;2022-10-16T03:20:38;50.7;;;33.0;;
61739;SDS011;47645;45.288;12.038;2022-10-16T03:30:40;54.8;;;33.4;;
61739;SDS011;47645;45.288;12.038;2022-10-16T03:40:39;52.6;;;33.5;;
61739;SDS011;47645;45.288;12.038;2022-10-16T03:50:41;59.5;;;34.3;;
61739;SDS011;47645;45.288;12.038;2022-10-16T04:00:41;64.0;;;37.7;;
61739;SDS011;47645;45.288;12.038;2022-10-16T04:10:42;64.9;;;39.1;;
61739;SDS011;47645;45.288;12.038;2022-10-16T04:20:43;66.1;;;37.8;;
61739;SDS011;47645;45.288;12.038;2022-10-16T04:30:44;69.1;;;40.8;;
61739;SDS011;47645;45.288;12.038;2022-10-16T04:40:44;78.6;;;42.8;;
61739;SDS011;47645;45.288;12.038;2022-10-16T04:50:46;82.3;;;43.4;;
61739;SDS011;47645;45.288;12.038;2022-10-16T05:00:46;74.2;;;42.0;;
61739;SDS011;47645;45.288;12.038;2022-10-16T05:10:47;84.4;;;45.8;;
61739;SDS011;47645;45.288;12.038;2022-10-16T05:20:48;90.1;;;47.1;;
61739;SDS011;47645;45.288;12.038;2022-10-16T05:30:49;90.2;;;47.3;;
61739;SDS011;47645;45.288;12.038;2022-10-16T05:40:50;86.0;;;46.0;;
61739;SDS011;47645;45.288;12.038;2022-10-16T05:50:59;85.3;;;46.9;;
61739;SDS011;47645;45.288;12.038;2022-10-16T06:00:53;81.6;;;44.2;;
61739;SDS011;47645;45.288;12.038;2022-10-16T06:11:00;88.1;;;44.3;;
61739;SDS011;47645;45.288;12.038;2022-10-16T06:20:53;74.6;;;42.6;;
61739;SDS011;47645;45.288;12.038;2022-10-16T06:30:58;87.2;;;47.7;;
61739;SDS011;47645;45.288;12.038;2022-10-16T06:40:55;87.5;;;48.8;;
61739;SDS011;47645;45.288;12.038;2022-10-16T06:50:57;91.1;;;48.4;;
61739;SDS011;47645;45.288;12.038;2022-10-16T07:00:57;86.1;;;47.6;;
61739;SDS011;47645;45.288;12.038;2022-10-16T07:10:58;85.5;;;47.9;;
61739;SDS011;47645;45.288;12.038;2022-10-16T07:21:04;85.4;;;50.0;;
61739;SDS011;47645;45.288;12.038;2022-10-16T07:31:02;83.1;;;48.8;;
61739;SDS011;47645;45.288;12.038;2022-10-16T07:41:02;81.9;;;49.6;;
61739;SDS011;47645;45.288;12.038;2022-10-16T07:51:04;80.1;;;47.5;;
61739;SDS011;47645;45.288;12.038;2022-10-16T08:01:03;78.0;;;49.7;;
61739;SDS011;47645;45.288;12.038;2022-10-16T08:11:04;78.1;;;48.2;;
61739;SDS011;47645;45.288;12.038;2022-10-16T08:21:05;77.7;;;46.0;;
61739;SDS011;47645;45.288;12.038;2022-10-16T08:31:06;73.7;;;44.5;;
61739;SDS011;47645;45.288;12.038;2022-10-16T08:41:18;71.4;;;42.6;;
61739;SDS011;47645;45.288;12.038;2022-10-16T08:51:07;71.5;;;44.8;;
61739;SDS011;47645;45.288;12.038;2022-10-16T09:01:11;70.9;;;43.8;;
61739;SDS011;47645;45.288;12.038;2022-10-16T09:11:10;69.2;;;44.5;;
61739;SDS011;47645;45.288;12.038;2022-10-16T09:21:13;62.9;;;42.4;;
61739;SDS011;47645;45.288;12.038;2022-10-16T09:31:13;61.2;;;41.5;;
61739;SDS011;47645;45.288;12.038;2022-10-16T09:41:15;62.1;;;41.6;;
61739;SDS011;47645;45.288;12.038;2022-10-16T09:51:17;57.5;;;38.6;;
61739;SDS011;47645;45.288;12.038;2022-10-16T10:01:15;49.8;;;34.2;;
61739;SDS011;47645;45.288;12.038;2022-10-16T10:11:16;55.2;;;37.1;;
61739;SDS011;47645;45.288;12.038;2022-10-16T10:21:18;47.1;;;32.6;;
61739;SDS011;47645;45.288;12.038;2022-10-16T10:31:20;40.7;;;31.6;;
61739;SDS011;47645;45.288;12.038;2022-10-16T10:41:25;42.0;;;30.7;;
61739;SDS011;47645;45.288;12.038;2022-10-16T10:51:22;35.1;;;25.4;;
61739;SDS011;47645;45.288;12.038;2022-10-16T11:01:24;32.2;;;23.9;;
61739;SDS011;47645;45.288;12.038;2022-10-16T11:11:25;32.2;;;23.0;;
61739;SDS011;47645;45.288;12.038;2022-10-16T11:21:25;31.7;;;25.1;;
61739;SDS011;47645;45.288;12.038;2022-10-16T11:31:28;31.1;;;22.8;;
61739;SDS011;47645;45.288;12.038;2022-10-16T11:41:28;35.4;;;27.4;;
61739;SDS011;47645;45.288;12.038;2022-10-16T11:51:31;32.4;;;26.1;;
61739;SDS011;47645;45.288;12.038;2022-10-16T12:01:31;30.8;;;23.1;;
61739;SDS011;47645;45.288;12.038;2022-10-16T12:11:34;28.5;;;22.9;;
61739;SDS011;47645;45.288;12.038;2022-10-16T12:21:33;30.2;;;24.9;;
61739;SDS011;47645;45.288;12.038;2022-10-16T12:31:36;27.8;;;24.0;;
61739;SDS011;47645;45.288;12.038;2022-10-16T12:41:37;28.6;;;24.6;;
61739;SDS011;47645;45.288;12.038;2022-10-16T12:51:37;29.0;;;22.9;;
61739;SDS011;47645;45.288;12.038;2022-10-16T13:01:42;27.4;;;22.6;;
61739;SDS011;47645;45.288;12.038;2022-10-16T13:11:47;24.5;;;21.8;;
61739;SDS011;47645;45.288;12.038;2022-10-16T13:21:43;29.1;;;22.1;;
61739;SDS011;47645;45.288;12.038;2022-10-16T13:31:43;26.1;;;21.0;;
61739;SDS011;47645;45.288;12.038;2022-10-16T13:41:44;26.6;;;21.5;;
61739;SDS011;47645;45.288;12.038;2022-10-16T13:51:54;26.3;;;22.0;;
61739;SDS011;47645;45.288;12.038;2022-10-16T14:01:46;23.1;;;20.0;;
61739;SDS011;47645;45.288;12.038;2022-10-16T14:11:49;23.9;;;20.6;;
61739;SDS011;47645;45.288;12.038;2022-10-16T14:21:50;25.0;;;20.6;;
61739;SDS011;47645;45.288;12.038;2022-10-16T14:31:54;22.6;;;19.3;;
61739;SDS011;47645;45.288;12.038;2022-10-16T14:41:52;24.0;;;19.6;;
61739;SDS011;47645;45.288;12.038;2022-10-16T14:51:54;22.5;;;19.4;;
61739;SDS011;47645;45.288;12.038;2022-10-16T15:01:55;23.3;;;19.8;;
61739;SDS011;47645;45.288;12.038;2022-10-16T15:11:56;21.6;;;17.7;;
61739;SDS011;47645;45.288;12.038;2022-10-16T15:21:57;25.4;;;20.7;;
61739;SDS011;47645;45.288;12.038;2022-10-16T15:31:59;24.9;;;19.8;;
61739;SDS011;47645;45.288;12.038;2022-10-16T15:42:00;22.3;;;17.9;;
61739;SDS011;47645;45.288;12.038;2022-10-16T15:52:01;20.8;;;17.4;;
61739;SDS011;47645;45.288;12.038;2022-10-16T16:02:02;28.6;;;22.7;;
61739;SDS011;47645;45.288;12.038;2022-10-16T16:12:04;23.1;;;18.2;;
61739;SDS011;47645;45.288;12.038;2022-10-16T16:22:05;25.3;;;20.3;;
61739;SDS011;47645;45.288;12.038;2022-10-16T16:32:06;26.9;;;20.7;;
61739;SDS011;47645;45.288;12.038;2022-10-16T16:42:07;24.3;;;18.1;;
61739;SDS011;47645;45.288;12.038;2022-10-16T16:52:08;21.4;;;17.3;;
61739;SDS011;47645;45.288;12.038;2022-10-16T17:02:09;23.1;;;18.3;;
61739;SDS011;47645;45.288;12.038;2022-10-16T17:12:11;22.5;;;18.7;;
61739;SDS011;47645;45.288;12.038;2022-10-16T17:22:12;23.0;;;18.7;;
61739;SDS011;47645;45.288;12.038;2022-10-16T17:32:13;23.3;;;18.9;;
61739;SDS011;47645;45.288;12.038;2022-10-16T17:42:14;27.0;;;21.3;;
61739;SDS011;47645;45.288;12.038;2022-10-16T17:52:15;24.7;;;19.3;;
61739;SDS011;47645;45.288;12.038;2022-10-16T18:02:17;23.9;;;18.7;;
61739;SDS011;47645;45.288;12.038;2022-10-16T18:12:17;22.8;;;18.9;;
61739;SDS011;47645;45.288;12.038;2022-10-16T18:22:20;28.3;;;21.6;;
61739;SDS011;47645;45.288;12.038;2022-10-16T18:32:22;26.7;;;20.7;;
61739;SDS011;47645;45.288;12.038;2022-10-16T18:42:21;24.0;;;19.1;;
61739;SDS011;47645;45.288;12.038;2022-10-16T18:52:24;25.6;;;20.6;;
61739;SDS011;47645;45.288;12.038;2022-10-16T19:02:23;26.0;;;19.9;;
61739;SDS011;47645;45.288;12.038;2022-10-16T19:12:24;22.2;;;17.7;;
61739;SDS011;47645;45.288;12.038;2022-10-16T19:22:40;27.2;;;20.5;;
61739;SDS011;47645;45.288;12.038;2022-10-16T19:32:26;22.7;;;18.5;;
61739;SDS011;47645;45.288;12.038;2022-10-16T19:42:27;28.4;;;21.0;;
61739;SDS011;47645;45.288;12.038;2022-10-16T19:52:28;27.5;;;20.4;;
61739;SDS011;47645;45.288;12.038;2022-10-16T20:02:29;26.9;;;20.7;;
61739;SDS011;47645;45.288;12.038;2022-10-16T20:12:30;28.7;;;20.2;;
61739;SDS011;47645;45.288;12.038;2022-10-16T20:22:32;28.9;;;21.3;;
61739;SDS011;47645;45.288;12.038;2022-10-16T20:32:33;23.8;;;18.6;;
61739;SDS011;47645;45.288;12.038;2022-10-16T20:42:34;26.8;;;20.0;;
61739;SDS011;47645;45.288;12.038;2022-10-16T20:52:35;23.5;;;18.0;;
61739;SDS011;47645;45.288;12.038;2022-10-16T21:02:35;25.3;;;19.3;;
61739;SDS011;47645;45.288;12.038;2022-10-16T21:12:36;27.5;;;20.3;;
61739;SDS011;47645;45.288;12.038;2022-10-16T21:22:37;22.4;;;17.2;;
61739;SDS011;47645;45.288;12.038;2022-10-16T21:32:38;23.2;;;17.3;;
61739;SDS011;47645;45.288;12.038;2022-10-16T21:42:39;25.4;;;19.2;;
61739;SDS011;47645;45.288;12.038;2022-10-16T21:52:40;23.3;;;18.0;;
61739;SDS011;47645;45.288;12.038;2022-10-16T22:02:41;23.2;;;17.3;;
61739;SDS011;47645;45.288;12.038;2022-10-16T22:12:42;26.8;;;19.9;;
61739;SDS011;47645;45.288;12.038;2022-10-16T22:22:43;24.6;;;19.0;;
61739;SDS011;47645;45.288;12.038;2022-10-16T22:32:44;24.9;;;18.7;;
61739;SDS011;47645;45.288;12.038;2022-10-16T22:42:45;46.2;;;32.1;;
61739;SDS011;47645;45.288;12.038;2022-10-16T22:52:46;50.2;;;32.9;;
61739;SDS011;47645;45.288;12.038;2022-10-16T23:02:47;41.8;;;27.9;;
61739;SDS011;47645;45.288;12.038;2022-10-16T23:12:48;51.2;;;33.0;;
61739;SDS011;47645;45.288;12.038;2022-10-16T23:22:49;58.8;;;37.5;;
61739;SDS011;47645;45.288;12.038;2022-10-16T23:32:50;45.2;;;30.7;;
61739;SDS011;47645;45.288;12.038;2022-10-16T23:42:51;45.3;;;31.4;;
61739;SDS011;47645;45.288;12.038;2022-10-16T23:52:52;59.2;;;37.8;;
